Terminal Aerodrome Forecast
Issued by NWS Charleston, WV

Home | Current Version | Previous Version | Text Only | Print | Product List | Glossary On
Versions: 1 2 3 4 5 6 7 8 9 10 11 12 13 14 15 16 17 18 19 20 21 22
000
FTUS41 KRLX 301138
TAFEKN
TAF
KEKN 301138Z 3012/3112 27003KT P6SM SCT100
     FM301600 27006KT P6SM VCTS BKN040CB
     FM302200 32006KT P6SM SCT045
     FM310000 31002KT P6SM SCT050
     FM310300 00000KT 5SM HZ SCT250
     FM310500 00000KT 2SM BR SCT001
     FM310700 00000KT 1/4SM FG VV001=

USA.gov is the U.S. government's official web portal to all federal, state and local government web resources and services.